Portada
METAR-TAF:

METAR-TAF

Aeroports :

Adrar, Algèria

latitud: 27-53N, longitud: 000-17W, altitud: 263 m

Observació

L'informe es va fer fa 48 minuts, a les 09:00 UTC
Vent 11 kt del Sud-Est
Temperatura 20°C
Humitat 43%
Pressió 1012 hPa
Visibilitat: 8000 m

METAR: DAUA 180900Z 13011KT 8000 NSC 20/07 Q1012

Hora: 10:48 (09:48 UTC)

Pronòstic

L'informe es va fer fa 4 hores i 48 minuts, a les 05:00 UTC
Pronòstic vàlid del 18 a les 06 UTC al 19 a les 06 UTC
Vent 8 kt del Nord-Est
Visibilitat: 8000 m
Evolucionant progressivament
l' 18 a les 08 UTC al 18 a les 11 UTC
Vent 12 kt del Sud
Probabilitat 30%
l' 18 a les 12 UTC al 18 a les 15 UTC
Vent 20 kt del Sud/Sud-Oest
Visibilitat: 5000 m
torb baixa de sorra

TAF: DAUA 180500Z 1806/1906 04008KT 8000 NSC BECMG 1808/1811 17012KT PROB30 1812/1815 20020KT 5000 DRSA

Observacions i pronòstics meteorològics de més de 4000 aeroports (METAR i TAF).

Les estacions disponibles són els punts grocs i vermells al mapa.

Posi el ratolí al punt desitjat per veure el nom de l'estació.

Feu clic per veure les observacions i els pronòstics meteorològics.

Per canviar el mapa: feu clic els botons verds amb una creu de color negre per apropar; al botó verd amb un guió per allunyar la imatge; o en les fletxes verdes per a mapes adjacents.


METAR-TAF: